Academy, Texas
Current Conditions -  °F | °C
As of 2:15 AM on Monday 24 Nov 2014 (Local Time) from KTPL Reporting Station
Clear Clear  
Wind Chill: 43°   Ceiling: Unl
Heat Index: 46°   Visibility: 10mi
Dew Point: 34°   Wind: 7mph
Humidity: 62%   Direction: 330°NNW
Pressure: 29.9"   Gusts: NA
Location:  30.9809°N, 97.3415°W
Report Text: KTPL 240815Z AUTO 33006KT 10SM CLR 08/01 A2990 RMK AO1
Loading
Personal Weather Stations






























Interactive Weather Map New forecast layout! Learn more

10-Day Weather Forecast

Advertisements
Track Severe Weather on mobile